createdAt,value
2022-09-21T00:01:56.557Z,1.35
2022-09-21T00:04:25.120Z,1.60
2022-09-21T00:06:55.883Z,1.80
2022-09-21T00:09:26.545Z,1.45
2022-09-21T00:11:58.157Z,1.65
2022-09-21T00:14:26.577Z,1.42
2022-09-21T00:16:55.624Z,1.98
2022-09-21T00:19:23.621Z,1.60
2022-09-21T00:21:55.092Z,1.60
2022-09-21T00:24:22.947Z,1.33
2022-09-21T00:26:50.927Z,1.67
2022-09-21T00:29:19.142Z,1.38
2022-09-21T00:31:59.679Z,1.50
2022-09-21T00:34:27.593Z,1.60
2022-09-21T00:36:56.538Z,1.50
2022-09-21T00:39:24.819Z,1.67
2022-09-21T00:41:53.826Z,1.50
2022-09-21T00:44:28.972Z,1.60
2022-09-21T00:47:08.252Z,1.98
2022-09-21T00:49:37.823Z,1.95
2022-09-21T00:52:06.856Z,2.13
2022-09-21T00:54:50.250Z,1.70
2022-09-21T00:57:22.258Z,1.90
2022-09-21T00:59:57.127Z,1.70
2022-09-21T01:02:30.889Z,1.90
2022-09-21T01:05:12.119Z,2.05
2022-09-21T01:07:44.479Z,2.15
2022-09-21T01:10:17.886Z,2.28
2022-09-21T01:13:12.732Z,2.65
2022-09-21T01:16:12.176Z,2.20
2022-09-21T01:19:04.175Z,2.85
2022-09-21T01:21:34.756Z,3.35
2022-09-21T01:24:10.007Z,3.53
2022-09-21T01:26:52.879Z,4.45
2022-09-21T01:29:35.423Z,4.78
2022-09-21T01:32:07.173Z,4.32
2022-09-21T01:34:38.579Z,4.38
2022-09-21T01:37:11.250Z,5.07
2022-09-21T01:39:39.376Z,4.68
2022-09-21T01:42:07.302Z,4.95
2022-09-21T01:44:39.047Z,5.57
2022-09-21T01:47:12.845Z,5.28
2022-09-21T01:50:08.867Z,4.60
2022-09-21T01:52:46.869Z,5.03
2022-09-21T01:55:21.213Z,4.97
2022-09-21T01:58:14.056Z,4.85
2022-09-21T02:00:42.007Z,4.95
2022-09-21T02:03:49.992Z,3.80
2022-09-21T02:06:18.164Z,4.65
2022-09-21T02:08:46.540Z,3.78
2022-09-21T02:11:14.960Z,3.67
2022-09-21T02:13:45.967Z,3.40
2022-09-21T02:16:40.401Z,4.35
2022-09-21T02:19:31.978Z,4.97
2022-09-21T02:22:12.906Z,5.50
2022-09-21T02:24:43.394Z,5.80
2022-09-21T02:27:32.222Z,4.47
2022-09-21T02:30:33.852Z,4.63
2022-09-21T02:33:34.331Z,4.43
2022-09-21T02:36:13.184Z,3.85
2022-09-21T02:38:51.245Z,4.22
2022-09-21T02:41:38.072Z,5.10
2022-09-21T02:44:13.121Z,5.13
2022-09-21T02:47:15.656Z,4.57
2022-09-21T02:49:49.394Z,3.80
2022-09-21T02:52:17.305Z,3.90
2022-09-21T02:54:47.849Z,3.05
2022-09-21T02:57:16.800Z,3.22
2022-09-21T02:59:44.703Z,3.17
2022-09-21T03:02:15.618Z,3.08
2022-09-21T03:04:47.783Z,3.65
2022-09-21T03:07:16.493Z,3.35
2022-09-21T03:09:45.133Z,2.95
2022-09-21T03:12:14.115Z,3.50
2022-09-21T03:14:41.897Z,3.85
2022-09-21T03:17:09.752Z,4.25
2022-09-21T03:19:39.700Z,4.65
2022-09-21T03:22:07.653Z,4.50
2022-09-21T03:24:47.696Z,4.15
2022-09-21T03:27:20.815Z,5.30
2022-09-21T03:29:48.693Z,3.80
2022-09-21T03:32:16.900Z,4.00
2022-09-21T03:34:44.760Z,3.78
2022-09-21T03:37:12.898Z,3.95
2022-09-21T03:39:41.730Z,4.05
2022-09-21T03:42:10.512Z,3.83
2022-09-21T03:44:41.023Z,3.97
2022-09-21T03:47:08.835Z,4.65
2022-09-21T03:49:38.944Z,4.43
2022-09-21T03:52:06.721Z,4.30
2022-09-21T03:54:35.685Z,4.18
2022-09-21T03:57:03.545Z,5.28
2022-09-21T03:59:31.742Z,5.47
2022-09-21T04:01:59.920Z,5.47
2022-09-21T04:04:28.073Z,5.57
2022-09-21T04:06:56.274Z,6.55
2022-09-21T04:09:24.255Z,6.30
2022-09-21T04:11:52.983Z,5.78
2022-09-21T04:14:22.468Z,5.30
2022-09-21T04:16:52.253Z,5.30
2022-09-21T04:19:21.196Z,5.30
2022-09-21T04:21:51.488Z,4.45
2022-09-21T04:24:19.452Z,4.18
2022-09-21T04:26:47.212Z,4.70
2022-09-21T04:29:16.857Z,4.53
2022-09-21T04:31:44.746Z,5.38
2022-09-21T04:34:13.215Z,4.78
2022-09-21T04:36:41.122Z,4.63
2022-09-21T04:39:10.788Z,4.55
2022-09-21T04:41:39.642Z,4.35
2022-09-21T04:44:10.800Z,4.05
2022-09-21T04:46:42.568Z,4.05
2022-09-21T04:49:10.984Z,11.25
2022-09-21T04:51:39.350Z,12.70
2022-09-21T04:54:07.913Z,12.48
2022-09-21T04:56:35.979Z,10.23
2022-09-21T04:59:06.485Z,8.07
2022-09-21T05:01:34.681Z,8.70
2022-09-21T05:04:03.096Z,7.53
2022-09-21T05:06:34.530Z,6.43
2022-09-21T05:09:21.106Z,6.07
2022-09-21T05:11:49.174Z,5.82
2022-09-21T05:14:17.225Z,6.90
2022-09-21T05:16:49.840Z,6.15
2022-09-21T05:19:18.067Z,5.22
2022-09-21T05:21:46.748Z,4.25
2022-09-21T05:24:15.052Z,4.60
2022-09-21T05:26:42.959Z,3.97
2022-09-21T05:29:11.469Z,3.75
2022-09-21T05:31:58.531Z,3.83
2022-09-21T05:34:39.034Z,3.75
2022-09-21T05:37:32.807Z,3.22
2022-09-21T05:40:10.454Z,4.05
2022-09-21T05:42:40.140Z,3.95
2022-09-21T05:45:16.891Z,3.60
2022-09-21T05:48:18.732Z,3.13
2022-09-21T05:50:59.922Z,3.40
2022-09-21T05:53:31.213Z,4.03
2022-09-21T05:56:03.615Z,3.35
2022-09-21T05:58:44.775Z,3.75
2022-09-21T06:01:34.002Z,3.97
2022-09-21T06:04:03.189Z,4.05
2022-09-21T06:06:31.763Z,3.72
2022-09-21T06:08:59.817Z,4.00
2022-09-21T06:11:29.468Z,3.90
2022-09-21T06:13:57.886Z,4.38
2022-09-21T06:16:26.201Z,3.78
2022-09-21T06:18:54.747Z,3.40
2022-09-21T06:21:22.751Z,3.58
2022-09-21T06:23:53.385Z,2.88
2022-09-21T06:26:23.110Z,4.95
2022-09-21T06:28:51.314Z,3.60
2022-09-21T06:31:21.512Z,3.30
2022-09-21T06:33:49.388Z,3.88
2022-09-21T06:36:17.694Z,3.25
2022-09-21T06:38:45.902Z,3.80
2022-09-21T06:41:21.291Z,3.40
2022-09-21T06:43:49.425Z,3.33
2022-09-21T06:46:17.232Z,3.25
2022-09-21T06:48:45.143Z,3.95
2022-09-21T06:51:13.938Z,3.53
2022-09-21T06:53:42.600Z,3.50
2022-09-21T06:56:11.391Z,3.35
2022-09-21T06:58:39.318Z,3.67
2022-09-21T07:01:08.292Z,3.92
2022-09-21T07:03:36.784Z,2.88
2022-09-21T07:06:04.884Z,3.10
2022-09-21T07:11:22.134Z,4.07
2022-09-21T07:13:50.688Z,3.92
2022-09-21T07:16:19.961Z,3.20
2022-09-21T07:18:49.071Z,3.53
2022-09-21T07:21:18.072Z,3.40
2022-09-21T07:23:45.998Z,3.15
2022-09-21T07:26:13.980Z,3.20
2022-09-21T07:28:44.830Z,3.55
2022-09-21T07:31:14.604Z,3.72
2022-09-21T07:33:48.965Z,3.67
2022-09-21T07:36:17.953Z,3.10
2022-09-21T07:38:47.083Z,3.05
2022-09-21T07:41:15.949Z,2.85
2022-09-21T07:43:43.764Z,3.38
2022-09-21T07:46:13.466Z,3.03
2022-09-21T07:48:41.807Z,3.80
2022-09-21T07:51:11.590Z,3.17
2022-09-21T07:53:41.678Z,3.20
2022-09-21T07:56:11.903Z,2.95
2022-09-21T07:58:58.196Z,3.55
2022-09-21T08:01:26.389Z,3.60
2022-09-21T08:03:56.224Z,3.30
2022-09-21T08:06:27.095Z,3.15
2022-09-21T08:08:57.999Z,3.50
2022-09-21T08:11:27.625Z,3.50
2022-09-21T08:13:57.269Z,3.58
2022-09-21T08:16:25.964Z,2.90
2022-09-21T08:18:57.809Z,3.40
2022-09-21T08:21:25.822Z,3.40
2022-09-21T08:23:53.836Z,3.60
2022-09-21T08:26:22.849Z,3.45
2022-09-21T08:28:52.329Z,3.47
2022-09-21T08:31:21.658Z,3.42
2022-09-21T08:33:50.241Z,3.28
2022-09-21T08:36:18.968Z,2.88
2022-09-21T08:38:51.003Z,2.72
2022-09-21T08:41:58.188Z,2.70
2022-09-21T08:44:41.371Z,2.78
2022-09-21T08:47:22.058Z,2.70
2022-09-21T08:49:53.511Z,3.10
2022-09-21T08:52:21.680Z,3.08
2022-09-21T08:54:49.741Z,2.60
2022-09-21T08:57:17.994Z,2.00
2022-09-21T08:59:48.641Z,2.05
2022-09-21T09:02:35.708Z,2.13
2022-09-21T09:05:16.941Z,1.60
2022-09-21T09:08:19.623Z,1.98
2022-09-21T09:11:06.675Z,2.25
2022-09-21T09:13:42.212Z,1.50
2022-09-21T09:16:18.999Z,1.48
2022-09-21T09:19:21.607Z,1.50
2022-09-21T09:21:49.720Z,2.00
2022-09-21T09:24:30.133Z,2.13
2022-09-21T09:27:15.484Z,1.58
2022-09-21T09:30:03.700Z,1.40
2022-09-21T09:32:42.837Z,1.55
2022-09-21T09:35:25.354Z,1.00
2022-09-21T09:38:14.896Z,1.73
2022-09-21T09:40:48.896Z,1.33
2022-09-21T09:43:41.209Z,1.13
2022-09-21T09:46:29.599Z,1.38
2022-09-21T09:49:42.630Z,1.17
2022-09-21T09:52:12.325Z,1.30
2022-09-21T09:54:40.307Z,2.20
2022-09-21T09:57:11.001Z,1.60
2022-09-21T09:59:54.216Z,1.40
2022-09-21T10:02:26.533Z,1.55
2022-09-21T10:05:06.619Z,1.42
2022-09-21T10:07:43.940Z,1.48
2022-09-21T10:10:55.903Z,1.60
2022-09-21T10:13:52.353Z,1.60
2022-09-21T10:16:22.511Z,1.92
2022-09-21T10:19:01.942Z,1.40
2022-09-21T10:22:28.585Z,1.40
2022-09-21T10:25:11.624Z,1.55
2022-09-21T10:27:44.537Z,1.40
2022-09-21T10:30:30.769Z,1.55
2022-09-21T10:32:59.025Z,1.90
2022-09-21T10:35:27.541Z,1.63
2022-09-21T10:38:11.445Z,2.05
2022-09-21T10:40:41.138Z,1.85
2022-09-21T10:43:43.624Z,2.80
2022-09-21T10:46:13.410Z,1.80
2022-09-21T10:48:41.535Z,1.90
2022-09-21T10:51:27.668Z,1.70
2022-09-21T10:53:55.783Z,3.05
2022-09-21T10:56:23.820Z,4.07
2022-09-21T10:59:12.920Z,2.08
2022-09-21T11:01:48.778Z,8.75
2022-09-21T11:07:21.723Z,3.00
2022-09-21T11:10:00.528Z,6.00
2022-09-21T11:12:36.291Z,9.23
2022-09-21T11:15:31.255Z,3.72
2022-09-21T11:18:13.157Z,9.85
2022-09-21T11:21:11.452Z,2.65
2022-09-21T11:24:23.712Z,7.30
2022-09-21T11:29:54.406Z,2.20
2022-09-21T11:33:33.226Z,5.75
2022-09-21T11:36:36.455Z,3.88
2022-09-21T11:39:49.425Z,1.75
2022-09-21T11:43:07.162Z,1.80
2022-09-21T11:45:57.754Z,2.22
2022-09-21T11:48:59.996Z,4.25
2022-09-21T11:51:38.484Z,2.30
2022-09-21T11:55:04.354Z,1.50
2022-09-21T12:01:02.640Z,1.58
2022-09-21T12:03:52.088Z,2.30
2022-09-21T12:06:48.703Z,4.97
2022-09-21T12:09:49.812Z,1.95
2022-09-21T12:12:52.228Z,2.47
2022-09-21T12:15:35.572Z,1.45
2022-09-21T12:18:30.807Z,2.05
2022-09-21T12:24:18.430Z,1.67
2022-09-21T12:26:56.105Z,1.70
2022-09-21T12:29:46.496Z,1.67
2022-09-21T12:32:49.827Z,2.42
2022-09-21T12:35:47.941Z,3.38
2022-09-21T12:38:27.705Z,2.75
2022-09-21T12:41:38.630Z,2.55
2022-09-21T12:44:53.411Z,3.00
2022-09-21T12:47:39.734Z,2.13
2022-09-21T12:50:43.689Z,1.33
2022-09-21T12:53:24.225Z,1.80
2022-09-21T12:56:10.186Z,2.15
2022-09-21T12:59:12.824Z,1.58
2022-09-21T13:01:44.487Z,2.28
2022-09-21T13:04:43.427Z,1.60
2022-09-21T13:07:54.695Z,2.00
2022-09-21T13:10:45.558Z,1.80
2022-09-21T13:13:37.623Z,1.35
2022-09-21T13:16:37.401Z,1.70
2022-09-21T13:19:23.029Z,1.38
2022-09-21T13:22:14.115Z,1.33
2022-09-21T13:24:45.813Z,2.08
2022-09-21T13:27:22.457Z,1.83
2022-09-21T13:29:58.111Z,1.50
2022-09-21T13:32:33.971Z,1.40
2022-09-21T13:35:54.993Z,1.67
2022-09-21T13:38:52.823Z,2.10
2022-09-21T13:41:51.841Z,1.75
2022-09-21T13:44:20.209Z,2.28
2022-09-21T13:46:50.854Z,2.33
2022-09-21T13:49:45.249Z,3.03
2022-09-21T13:52:14.285Z,2.03
2022-09-21T13:54:50.751Z,2.70
2022-09-21T13:57:28.102Z,2.70
2022-09-21T14:00:13.078Z,2.78
2022-09-21T14:02:45.646Z,2.10
2022-09-21T14:05:40.801Z,2.47
2022-09-21T14:08:32.847Z,2.37
2022-09-21T14:11:24.646Z,2.65
2022-09-21T14:14:13.107Z,3.28
2022-09-21T14:16:47.880Z,2.60
2022-09-21T14:19:19.133Z,2.00
2022-09-21T14:22:05.738Z,2.58
2022-09-21T14:24:42.213Z,2.20
2022-09-21T14:27:34.987Z,2.30
2022-09-21T14:30:16.846Z,2.10
2022-09-21T14:33:18.712Z,2.40
2022-09-21T14:35:47.619Z,2.17
2022-09-21T14:38:28.904Z,2.20
2022-09-21T14:41:01.919Z,2.25
2022-09-21T14:43:36.367Z,2.00
2022-09-21T14:46:25.627Z,2.35
2022-09-21T14:49:08.962Z,1.58
2022-09-21T14:51:43.518Z,2.17
2022-09-21T14:54:31.606Z,1.80
2022-09-21T14:57:14.081Z,2.50
2022-09-21T14:59:58.978Z,1.80
2022-09-21T15:02:44.975Z,2.90
2022-09-21T15:05:34.427Z,2.90
2022-09-21T15:09:03.606Z,3.03
2022-09-21T15:11:42.845Z,3.53
2022-09-21T15:14:28.703Z,3.53
2022-09-21T15:16:57.581Z,5.35
2022-09-21T15:19:27.390Z,3.40
2022-09-21T15:22:21.566Z,3.53
2022-09-21T15:24:53.397Z,3.50
2022-09-21T15:27:35.100Z,3.20
2022-09-21T15:30:05.302Z,3.17
2022-09-21T15:32:43.824Z,3.35
2022-09-21T15:35:23.190Z,2.90
2022-09-21T15:37:51.666Z,2.90
2022-09-21T15:40:20.896Z,3.75
2022-09-21T15:43:16.051Z,3.55
2022-09-21T15:45:58.471Z,3.75
2022-09-21T15:48:34.395Z,4.10
2022-09-21T15:51:41.237Z,6.82
2022-09-21T15:54:23.892Z,3.95
2022-09-21T15:56:52.112Z,5.10
2022-09-21T15:59:21.052Z,6.30
2022-09-21T16:01:57.685Z,6.22
2022-09-21T16:04:27.316Z,6.32
2022-09-21T16:07:24.471Z,6.88
2022-09-21T16:09:53.383Z,11.10
2022-09-21T16:12:26.507Z,7.03
2022-09-21T16:14:54.408Z,6.75
2022-09-21T16:17:26.390Z,6.60
2022-09-21T16:20:13.266Z,6.60
2022-09-21T16:22:48.743Z,5.97
2022-09-21T16:25:30.113Z,5.97
2022-09-21T16:28:05.781Z,6.30
2022-09-21T16:30:52.783Z,6.85
2022-09-21T16:33:48.026Z,7.45
2022-09-21T16:36:18.811Z,8.90
2022-09-21T16:38:56.365Z,9.93
2022-09-21T16:41:27.347Z,11.57
2022-09-21T16:43:57.581Z,10.95
2022-09-21T16:46:32.130Z,15.93
2022-09-21T16:49:00.928Z,14.27
2022-09-21T16:51:32.980Z,12.68
2022-09-21T16:54:03.271Z,12.48
2022-09-21T16:56:32.605Z,10.90
2022-09-21T16:59:03.879Z,10.75
2022-09-21T17:01:32.155Z,10.95
2022-09-21T17:03:59.948Z,12.98
2022-09-21T17:06:28.285Z,11.40
2022-09-21T17:08:58.696Z,13.73
2022-09-21T17:11:30.058Z,13.93
2022-09-21T17:14:06.046Z,16.20
2022-09-21T17:16:34.163Z,12.80
2022-09-21T17:19:03.696Z,11.93
2022-09-21T17:21:31.773Z,10.88
2022-09-21T17:23:59.757Z,10.73
2022-09-21T17:26:28.779Z,10.73
2022-09-21T17:28:56.797Z,10.40
2022-09-21T17:31:26.155Z,10.10
2022-09-21T17:33:58.253Z,10.20
2022-09-21T17:36:26.202Z,11.23
2022-09-21T17:38:57.053Z,12.25
2022-09-21T17:41:29.824Z,14.13
2022-09-21T17:44:17.138Z,13.07
2022-09-21T17:47:01.734Z,13.40
2022-09-21T17:49:33.485Z,16.95
2022-09-21T17:52:29.148Z,12.25
2022-09-21T17:55:05.534Z,12.63
2022-09-21T18:00:22.747Z,12.85
2022-09-21T18:02:55.445Z,13.65
2022-09-21T18:05:30.355Z,14.02
2022-09-21T18:08:16.913Z,14.30
2022-09-21T18:11:02.228Z,15.20
2022-09-21T18:14:05.999Z,14.95
2022-09-21T18:17:14.006Z,13.82
2022-09-21T18:19:57.376Z,11.70
2022-09-21T18:22:48.394Z,11.63
2022-09-21T18:25:21.479Z,10.90
2022-09-21T18:27:49.379Z,10.50
2022-09-21T18:30:18.021Z,9.15
2022-09-21T18:33:01.212Z,8.65
2022-09-21T18:35:36.061Z,8.90
2022-09-21T18:38:21.042Z,8.27
2022-09-21T18:41:11.582Z,7.32
2022-09-21T18:43:57.385Z,7.47
2022-09-21T18:46:50.843Z,7.05
2022-09-21T18:49:40.258Z,7.97
2022-09-21T18:52:28.214Z,8.23
2022-09-21T18:54:56.894Z,8.23
2022-09-21T18:57:25.700Z,8.48
2022-09-21T18:59:56.335Z,7.72
2022-09-21T19:02:25.054Z,7.25
2022-09-21T19:04:59.267Z,7.32
2022-09-21T19:07:40.235Z,6.97
2022-09-21T19:10:11.099Z,7.22
2022-09-21T19:12:59.150Z,6.78
2022-09-21T19:16:01.372Z,6.78
2022-09-21T19:18:57.414Z,6.63
2022-09-21T19:21:46.115Z,9.52
2022-09-21T19:24:32.346Z,6.72
2022-09-21T19:27:15.460Z,5.85
2022-09-21T19:29:52.852Z,5.40
2022-09-21T19:32:50.412Z,4.80
2022-09-21T19:35:29.079Z,5.80
2022-09-21T19:37:59.848Z,5.85
2022-09-21T19:40:39.681Z,7.30
2022-09-21T19:43:31.516Z,8.27
2022-09-21T19:46:33.824Z,8.00
2022-09-21T19:49:13.580Z,7.40
2022-09-21T19:51:51.049Z,9.38
2022-09-21T19:54:43.413Z,8.55
2022-09-21T19:57:36.627Z,9.27
2022-09-21T20:00:11.225Z,9.48
2022-09-21T20:02:55.810Z,8.73
2022-09-21T20:06:08.448Z,9.63
2022-09-21T20:08:46.232Z,8.45
2022-09-21T20:11:24.316Z,9.52
2022-09-21T20:15:25.263Z,7.75
2022-09-21T20:18:20.310Z,7.88
2022-09-21T20:20:48.520Z,7.47
2022-09-21T20:23:18.225Z,8.98
2022-09-21T20:26:00.708Z,8.35
2022-09-21T20:28:41.557Z,9.43
2022-09-21T20:31:49.628Z,9.73
2022-09-21T20:34:45.888Z,9.20
2022-09-21T20:37:27.481Z,8.93
2022-09-21T20:39:56.070Z,10.82
2022-09-21T20:42:40.176Z,11.48
2022-09-21T20:45:20.610Z,11.15
2022-09-21T20:47:50.855Z,11.30
2022-09-21T20:50:19.987Z,11.13
2022-09-21T20:53:27.444Z,12.65
2022-09-21T20:55:57.060Z,12.38
2022-09-21T20:58:25.660Z,15.25
2022-09-21T21:00:58.766Z,16.08
2022-09-21T21:03:27.090Z,16.20
2022-09-21T21:06:18.763Z,16.20
2022-09-21T21:11:52.712Z,13.20
2022-09-21T21:14:21.978Z,11.00
2022-09-21T21:16:50.057Z,11.95
2022-09-21T21:19:17.967Z,9.40
2022-09-21T21:21:45.926Z,7.88
2022-09-21T21:24:32.213Z,8.85
2022-09-21T21:27:02.830Z,9.23
2022-09-21T21:29:32.086Z,7.75
2022-09-21T21:32:00.490Z,8.02
2022-09-21T21:34:28.564Z,7.32
2022-09-21T21:36:56.493Z,7.75
2022-09-21T21:39:24.436Z,7.68
2022-09-21T21:41:52.218Z,8.57
2022-09-21T21:44:20.178Z,8.23
2022-09-21T21:46:48.171Z,8.40
2022-09-21T21:49:17.599Z,7.60
2022-09-21T21:51:49.515Z,7.05
2022-09-21T21:54:19.054Z,7.97
2022-09-21T21:56:46.964Z,9.55
2022-09-21T21:59:17.771Z,10.32
2022-09-21T22:01:46.867Z,11.00
2022-09-21T22:04:14.900Z,10.57
2022-09-21T22:06:43.213Z,12.15
2022-09-21T22:09:11.525Z,13.77
2022-09-21T22:11:39.626Z,13.85
2022-09-21T22:14:08.342Z,13.35
2022-09-21T22:16:38.038Z,12.70
2022-09-21T22:19:07.191Z,11.43
2022-09-21T22:21:48.218Z,14.18
2022-09-21T22:24:18.271Z,16.30
2022-09-21T22:26:48.712Z,14.68
2022-09-21T22:29:17.470Z,17.77
2022-09-21T22:31:49.197Z,16.48
2022-09-21T22:34:17.582Z,16.15
2022-09-21T22:36:45.605Z,17.27
2022-09-21T22:39:13.814Z,15.60
2022-09-21T22:41:42.283Z,16.95
2022-09-21T22:44:10.611Z,14.55
2022-09-21T22:46:38.946Z,12.65
2022-09-21T22:49:07.779Z,14.13
2022-09-21T22:51:35.886Z,14.68
2022-09-21T22:54:03.838Z,14.93
2022-09-21T22:56:32.863Z,15.88
2022-09-21T22:59:02.273Z,16.20
2022-09-21T23:01:40.552Z,14.88
2022-09-21T23:04:10.132Z,14.95
2022-09-21T23:06:39.741Z,13.38
2022-09-21T23:09:09.736Z,13.25
2022-09-21T23:11:47.614Z,14.77
2022-09-21T23:14:16.386Z,18.60
2022-09-21T23:16:44.947Z,22.50
2022-09-21T23:19:15.998Z,21.50
2022-09-21T23:21:52.939Z,21.15
2022-09-21T23:24:21.096Z,33.60
2022-09-21T23:26:51.779Z,29.50
2022-09-21T23:29:20.161Z,27.77
2022-09-21T23:31:48.409Z,24.73
2022-09-21T23:34:16.565Z,24.08
2022-09-21T23:36:45.023Z,22.50
2022-09-21T23:39:14.145Z,18.80
2022-09-21T23:41:42.431Z,17.27
2022-09-21T23:44:11.030Z,17.52
2022-09-21T23:46:39.808Z,16.42
2022-09-21T23:49:08.086Z,15.07
2022-09-21T23:51:36.591Z,14.50
2022-09-21T23:54:04.814Z,13.77
2022-09-21T23:56:33.124Z,14.40
2022-09-21T23:59:01.208Z,13.63
